Time;durP1;ratioP1;P1;durP2;ratioP2;P2;SDS_P1;SDS_P2;PMS_P1;PMS_P2;Temp;Humidity;BMP_temperature;BMP_pressure;BME280_temperature;BME280_humidity;BME280_pressure;Samples;Min_cycle;Max_cycle;Signal;HPM_P1;HPM_P2
2023/01/08 00:02:22;;;;;;;10.02;7.75;;;;;;;;;;10286394;28;20435;-61
2023/01/08 00:07:20;;;;;;;25.85;16.88;;;;;;;;;;10283604;28;20056;-61
2023/01/08 00:12:19;;;;;;;24.90;18.23;;;;;;;;;;10283012;28;20079;-62
2023/01/08 00:17:17;;;;;;;19.88;13.20;;;;;;;;;;10267138;28;20087;-61
2023/01/08 00:22:16;;;;;;;12.85;8.68;;;;;;;;;;10274825;28;20080;-61
2023/01/08 00:27:14;;;;;;;11.90;7.10;;;;;;;;;;10269834;28;20041;-61
2023/01/08 00:32:13;;;;;;;8.20;6.50;;;;;;;;;;10307279;28;20087;-60
2023/01/08 00:37:12;;;;;;;9.00;6.93;;;;;;;;;;10291804;28;20079;-61
2023/01/08 00:42:10;;;;;;;10.05;7.22;;;;;;;;;;10296543;28;20067;-61
2023/01/08 00:47:08;;;;;;;7.35;6.13;;;;;;;;;;10285357;28;20044;-61
2023/01/08 00:52:08;;;;;;;25.60;16.77;;;;;;;;;;10309379;28;20509;-62
2023/01/08 00:57:06;;;;;;;31.23;22.98;;;;;;;;;;10310489;28;20076;-62
2023/01/08 01:02:04;;;;;;;34.85;23.35;;;;;;;;;;10311630;28;20477;-62
2023/01/08 01:07:03;;;;;;;20.88;15.40;;;;;;;;;;10302097;28;20134;-62
2023/01/08 01:12:03;;;;;;;122.90;51.15;;;;;;;;;;10309265;28;20072;-62
2023/01/08 01:17:01;;;;;;;89.35;48.70;;;;;;;;;;10299756;28;20148;-62
2023/01/08 01:21:59;;;;;;;47.88;27.23;;;;;;;;;;10300544;28;20201;-62
2023/01/08 01:26:57;;;;;;;54.53;29.77;;;;;;;;;;10300399;28;20088;-62
2023/01/08 01:31:57;;;;;;;43.60;30.05;;;;;;;;;;10297112;28;20073;-62
2023/01/08 01:36:55;;;;;;;49.20;34.97;;;;;;;;;;10302881;28;20064;-62
2023/01/08 01:41:53;;;;;;;48.95;32.63;;;;;;;;;;10313012;28;20079;-62
2023/01/08 01:46:52;;;;;;;55.13;40.08;;;;;;;;;;10312714;28;20040;-62
2023/01/08 01:51:53;;;;;;;44.10;28.30;;;;;;;;;;10312307;28;20132;-62
2023/01/08 01:56:51;;;;;;;28.23;20.70;;;;;;;;;;10299074;28;20063;-61
2023/01/08 02:01:50;;;;;;;37.42;26.00;;;;;;;;;;10312841;28;20114;-62
2023/01/08 02:06:51;;;;;;;28.33;22.52;;;;;;;;;;10311749;28;20460;-62
2023/01/08 02:17:10;;;;;;;27.75;21.67;;;;;;;;;;10292553;28;20040;-60
2023/01/08 02:22:14;;;;;;;39.17;25.33;;;;;;;;;;10293040;28;20351;-61
2023/01/08 02:27:14;;;;;;;31.45;24.40;;;;;;;;;;10302295;28;20037;-61
2023/01/08 02:32:12;;;;;;;29.27;21.58;;;;;;;;;;10296945;28;20064;-61
2023/01/08 02:37:11;;;;;;;46.80;32.08;;;;;;;;;;10305664;28;20037;-60
2023/01/08 02:42:16;;;;;;;41.08;28.75;;;;;;;;;;10291832;28;20037;-60
2023/01/08 02:47:19;;;;;;;28.23;21.80;;;;;;;;;;10305726;28;20096;-61
2023/01/08 02:52:18;;;;;;;55.58;39.25;;;;;;;;;;10305565;28;20139;-61
2023/01/08 02:57:18;;;;;;;53.72;39.38;;;;;;;;;;10306345;28;20044;-61
2023/01/08 03:02:17;;;;;;;22.80;16.70;;;;;;;;;;10292511;28;20091;-61
2023/01/08 03:07:15;;;;;;;18.52;13.10;;;;;;;;;;10305512;28;20067;-61
2023/01/08 03:12:16;;;;;;;43.05;28.73;;;;;;;;;;10304830;28;20104;-61
2023/01/08 03:17:18;;;;;;;34.63;26.40;;;;;;;;;;10306137;28;20045;-61
2023/01/08 03:22:17;;;;;;;45.45;33.22;;;;;;;;;;10305535;28;20068;-60
2023/01/08 03:27:17;;;;;;;61.40;41.97;;;;;;;;;;10304580;28;20033;-61
2023/01/08 03:32:18;;;;;;;31.70;21.48;;;;;;;;;;10300821;28;20354;-61
2023/01/08 03:37:20;;;;;;;21.67;15.73;;;;;;;;;;10283315;28;20044;-61
2023/01/08 03:42:19;;;;;;;25.00;19.60;;;;;;;;;;10312500;28;20044;-62
2023/01/08 03:47:20;;;;;;;22.30;17.10;;;;;;;;;;10310155;28;20071;-60
2023/01/08 03:52:22;;;;;;;21.70;16.40;;;;;;;;;;10311403;28;20052;-60
2023/01/08 03:57:20;;;;;;;16.30;13.38;;;;;;;;;;10310880;28;20481;-61
2023/01/08 04:02:20;;;;;;;21.75;15.27;;;;;;;;;;10310967;28;20143;-61
2023/01/08 04:07:18;;;;;;;27.67;20.45;;;;;;;;;;10311231;28;20098;-61
2023/01/08 04:12:16;;;;;;;19.65;15.38;;;;;;;;;;10297897;28;20045;-61
2023/01/08 04:17:15;;;;;;;43.20;26.17;;;;;;;;;;10308872;28;20052;-60
2023/01/08 04:22:14;;;;;;;32.47;21.40;;;;;;;;;;10310753;28;20079;-61
2023/01/08 04:27:12;;;;;;;20.83;14.73;;;;;;;;;;10310967;28;20132;-61
2023/01/08 04:32:10;;;;;;;17.83;12.75;;;;;;;;;;10309519;28;20056;-61
2023/01/08 04:37:09;;;;;;;13.65;11.38;;;;;;;;;;10311550;28;20076;-61
2023/01/08 04:42:08;;;;;;;15.40;12.65;;;;;;;;;;10305382;28;20080;-60
2023/01/08 04:47:06;;;;;;;18.23;14.25;;;;;;;;;;10290994;28;20093;-61
2023/01/08 04:52:04;;;;;;;34.22;27.00;;;;;;;;;;10310002;28;20057;-61
2023/01/08 04:57:03;;;;;;;38.13;30.63;;;;;;;;;;10310618;28;20096;-61
2023/01/08 05:02:02;;;;;;;40.83;29.58;;;;;;;;;;10309884;28;20482;-61
2023/01/08 05:07:00;;;;;;;28.90;23.25;;;;;;;;;;10310698;28;20068;-61
2023/01/08 05:11:59;;;;;;;31.50;25.15;;;;;;;;;;10310235;28;20446;-61
2023/01/08 05:16:57;;;;;;;26.40;20.83;;;;;;;;;;10309337;28;20117;-61
2023/01/08 05:21:57;;;;;;;25.73;21.77;;;;;;;;;;10295700;28;20410;-61
2023/01/08 05:26:55;;;;;;;26.30;18.77;;;;;;;;;;10293363;28;20056;-61
2023/01/08 05:31:53;;;;;;;21.15;17.25;;;;;;;;;;10286042;28;20079;-61
2023/01/08 05:36:51;;;;;;;23.20;17.90;;;;;;;;;;10309047;28;20131;-61
2023/01/08 05:41:51;;;;;;;18.73;16.15;;;;;;;;;;10309108;28;20040;-61
2023/01/08 05:46:49;;;;;;;36.80;25.73;;;;;;;;;;10308467;28;20045;-61
2023/01/08 05:51:47;;;;;;;24.52;18.95;;;;;;;;;;10308012;28;20098;-61
2023/01/08 05:56:45;;;;;;;33.95;21.35;;;;;;;;;;10308805;28;20068;-60
2023/01/08 06:01:45;;;;;;;27.63;19.65;;;;;;;;;;10293918;28;20060;-61
2023/01/08 06:06:43;;;;;;;28.35;21.25;;;;;;;;;;10292666;28;20193;-61
2023/01/08 06:11:41;;;;;;;43.95;29.23;;;;;;;;;;10294990;28;20104;-60
2023/01/08 06:16:39;;;;;;;47.80;31.55;;;;;;;;;;10277297;28;20108;-61
2023/01/08 06:21:39;;;;;;;61.88;40.42;;;;;;;;;;10275030;28;20094;-61
2023/01/08 06:26:37;;;;;;;40.58;29.38;;;;;;;;;;10276695;28;20056;-60
2023/01/08 06:31:35;;;;;;;46.03;30.70;;;;;;;;;;10263889;28;20457;-61
2023/01/08 06:36:34;;;;;;;37.33;28.63;;;;;;;;;;10266389;28;20108;-60
2023/01/08 06:41:33;;;;;;;32.38;19.75;;;;;;;;;;10272438;28;20076;-60
2023/01/08 06:46:37;;;;;;;24.02;17.70;;;;;;;;;;10283588;28;20492;-61
2023/01/08 06:51:35;;;;;;;19.15;14.98;;;;;;;;;;10298280;28;20072;-61
2023/01/08 06:56:35;;;;;;;19.75;15.82;;;;;;;;;;10277541;28;20086;-61
2023/01/08 07:01:49;;;;;;;18.08;15.02;;;;;;;;;;10265548;28;20064;-61
2023/01/08 07:06:48;;;;;;;31.67;20.38;;;;;;;;;;10283631;28;20408;-60
2023/01/08 07:11:47;;;;;;;23.85;19.48;;;;;;;;;;10302886;28;20071;-61
2023/01/08 07:16:45;;;;;;;25.30;19.98;;;;;;;;;;10311292;28;20120;-60
2023/01/08 07:21:44;;;;;;;23.38;17.80;;;;;;;;;;10314280;28;20087;-61
2023/01/08 07:26:42;;;;;;;62.33;44.83;;;;;;;;;;10289326;28;20084;-61
2023/01/08 07:31:41;;;;;;;66.40;42.28;;;;;;;;;;10272754;28;20044;-61
2023/01/08 07:36:40;;;;;;;55.28;40.05;;;;;;;;;;10272491;28;20121;-61
2023/01/08 07:41:38;;;;;;;123.07;82.38;;;;;;;;;;10272742;28;20366;-61
2023/01/08 07:46:36;;;;;;;113.32;77.93;;;;;;;;;;10271859;28;20076;-60
2023/01/08 07:51:36;;;;;;;123.47;86.03;;;;;;;;;;10272228;28;20092;-60
2023/01/08 07:56:34;;;;;;;111.85;84.65;;;;;;;;;;10272268;28;20068;-60
2023/01/08 08:01:32;;;;;;;118.65;87.13;;;;;;;;;;10285093;28;20058;-60
2023/01/08 08:06:31;;;;;;;161.75;102.57;;;;;;;;;;10268939;28;20068;-60
2023/01/08 08:11:30;;;;;;;136.13;80.10;;;;;;;;;;10287897;28;20048;-60
2023/01/08 08:16:28;;;;;;;367.63;192.13;;;;;;;;;;10277373;28;20458;-60
2023/01/08 08:21:28;;;;;;;350.20;178.02;;;;;;;;;;10272018;28;20071;-60
2023/01/08 08:26:26;;;;;;;276.05;183.95;;;;;;;;;;10303592;28;20089;-60
2023/01/08 08:31:26;;;;;;;69.78;47.30;;;;;;;;;;10279386;28;20075;-60
2023/01/08 08:36:27;;;;;;;36.40;26.67;;;;;;;;;;10305636;28;20060;-60
2023/01/08 08:41:25;;;;;;;28.88;21.02;;;;;;;;;;10292401;28;20266;-60
2023/01/08 08:46:24;;;;;;;30.15;23.00;;;;;;;;;;10292299;28;20548;-60
2023/01/08 08:51:23;;;;;;;30.23;23.42;;;;;;;;;;10269169;28;20270;-60
2023/01/08 08:56:22;;;;;;;38.15;26.38;;;;;;;;;;10288918;28;20454;-60
2023/01/08 09:01:20;;;;;;;42.22;28.63;;;;;;;;;;10282405;28;20048;-60
2023/01/08 09:06:18;;;;;;;32.70;21.05;;;;;;;;;;10278591;28;20428;-60
2023/01/08 09:11:18;;;;;;;26.52;20.60;;;;;;;;;;10269152;28;20061;-60
2023/01/08 09:16:16;;;;;;;34.33;26.02;;;;;;;;;;10273539;28;20450;-60
2023/01/08 09:21:14;;;;;;;38.38;30.70;;;;;;;;;;10273280;28;20116;-60
2023/01/08 09:26:12;;;;;;;53.80;38.30;;;;;;;;;;10278168;28;20037;-62
2023/01/08 09:31:12;;;;;;;73.40;47.65;;;;;;;;;;10265511;28;20407;-59
2023/01/08 09:36:11;;;;;;;99.13;54.85;;;;;;;;;;10268801;28;20068;-60
2023/01/08 09:41:10;;;;;;;44.75;28.70;;;;;;;;;;10279747;28;20346;-60
2023/01/08 09:46:08;;;;;;;39.22;32.45;;;;;;;;;;10288463;28;20083;-60
2023/01/08 09:51:09;;;;;;;50.55;30.60;;;;;;;;;;10296469;28;20060;-60
2023/01/08 09:56:10;;;;;;;35.88;23.73;;;;;;;;;;10279384;28;20095;-60
2023/01/08 10:01:11;;;;;;;53.40;43.25;;;;;;;;;;10270895;28;20068;-60
2023/01/08 10:06:12;;;;;;;104.43;85.63;;;;;;;;;;10282470;28;20064;-60
2023/01/08 10:11:10;;;;;;;39.00;30.05;;;;;;;;;;10285813;28;20116;-60
2023/01/08 10:16:09;;;;;;;45.85;30.70;;;;;;;;;;10278365;28;20128;-61
2023/01/08 10:21:13;;;;;;;35.58;24.80;;;;;;;;;;10265674;28;20075;-61
2023/01/08 10:26:11;;;;;;;50.80;32.42;;;;;;;;;;10265719;28;20454;-61
2023/01/08 10:31:14;;;;;;;39.08;28.38;;;;;;;;;;10286569;28;20091;-61
2023/01/08 10:36:15;;;;;;;50.42;29.13;;;;;;;;;;10289414;28;20083;-60
2023/01/08 10:41:14;;;;;;;55.70;29.92;;;;;;;;;;10271398;28;20127;-61
2023/01/08 10:46:15;;;;;;;30.40;21.50;;;;;;;;;;10275171;28;20064;-61
2023/01/08 10:51:16;;;;;;;33.45;21.88;;;;;;;;;;10282878;28;20068;-61
2023/01/08 10:56:19;;;;;;;62.20;30.52;;;;;;;;;;10305444;28;20167;-60
2023/01/08 11:01:19;;;;;;;50.15;27.50;;;;;;;;;;10283459;28;20490;-61
2023/01/08 11:06:21;;;;;;;36.95;21.83;;;;;;;;;;10275620;28;20077;-60
2023/01/08 11:11:19;;;;;;;38.92;26.42;;;;;;;;;;10284940;28;20071;-62
2023/01/08 11:16:18;;;;;;;36.95;24.35;;;;;;;;;;10301830;28;20091;-60
2023/01/08 11:21:20;;;;;;;31.80;21.83;;;;;;;;;;10280935;28;20072;-61
2023/01/08 11:26:20;;;;;;;31.15;20.75;;;;;;;;;;10303151;28;20073;-61
2023/01/08 11:31:21;;;;;;;27.60;18.52;;;;;;;;;;10305128;28;20068;-61
2023/01/08 11:36:23;;;;;;;25.50;18.65;;;;;;;;;;10278137;28;20079;-61
2023/01/08 11:41:29;;;;;;;136.95;31.55;;;;;;;;;;10275846;28;20471;-63
2023/01/08 11:46:32;;;;;;;50.17;26.48;;;;;;;;;;10286562;28;20049;-62
2023/01/08 11:51:40;;;;;;;55.70;33.33;;;;;;;;;;10268000;28;20566;-61
2023/01/08 11:56:45;;;;;;;30.85;21.52;;;;;;;;;;10280572;28;20092;-61
2023/01/08 12:01:48;;;;;;;48.47;30.50;;;;;;;;;;10280520;28;20064;-60
2023/01/08 12:06:52;;;;;;;26.83;19.67;;;;;;;;;;10287459;28;20072;-60
2023/01/08 12:11:53;;;;;;;42.83;23.40;;;;;;;;;;10305869;28;20060;-61
2023/01/08 12:17:00;;;;;;;20.73;15.35;;;;;;;;;;10277077;28;20073;-61
2023/01/08 12:22:07;;;;;;;31.17;20.85;;;;;;;;;;10266562;28;20333;-63
2023/01/08 12:27:09;;;;;;;60.65;29.38;;;;;;;;;;10276540;28;20064;-61
2023/01/08 12:32:26;;;;;;;30.92;20.77;;;;;;;;;;10286358;28;20079;-61
2023/01/08 12:37:28;;;;;;;19.10;16.00;;;;;;;;;;10274330;28;20083;-61
2023/01/08 12:42:27;;;;;;;38.97;24.55;;;;;;;;;;10296773;28;20068;-61
2023/01/08 12:47:27;;;;;;;16.83;14.13;;;;;;;;;;10281597;28;20068;-61
2023/01/08 12:52:29;;;;;;;22.98;16.70;;;;;;;;;;10269553;28;20493;-61
2023/01/08 12:57:28;;;;;;;28.42;19.73;;;;;;;;;;10268983;28;20072;-61
2023/01/08 13:02:33;;;;;;;19.85;17.40;;;;;;;;;;10276604;28;20079;-61
2023/01/08 13:07:44;;;;;;;33.03;21.38;;;;;;;;;;10269381;28;20079;-60
2023/01/08 13:12:42;;;;;;;27.70;21.30;;;;;;;;;;10271288;28;20542;-60
2023/01/08 13:17:40;;;;;;;32.55;23.27;;;;;;;;;;10288657;28;20076;-60
2023/01/08 13:22:40;;;;;;;32.92;24.08;;;;;;;;;;10282158;28;20072;-61
2023/01/08 13:27:38;;;;;;;53.42;29.83;;;;;;;;;;10273099;28;20057;-61
2023/01/08 13:32:40;;;;;;;60.08;37.83;;;;;;;;;;10268727;28;20056;-60
2023/01/08 13:37:40;;;;;;;76.97;55.13;;;;;;;;;;10275150;28;20072;-59
2023/01/08 13:42:40;;;;;;;31.83;21.85;;;;;;;;;;10286082;28;20068;-60
2023/01/08 13:47:42;;;;;;;33.72;24.77;;;;;;;;;;10297290;28;20069;-60
2023/01/08 13:52:44;;;;;;;33.30;24.65;;;;;;;;;;10283989;28;20084;-59
2023/01/08 13:57:43;;;;;;;30.02;20.55;;;;;;;;;;10265211;28;20084;-60
2023/01/08 14:02:48;;;;;;;45.97;29.52;;;;;;;;;;10272423;28;20477;-60
2023/01/08 14:07:49;;;;;;;40.03;28.85;;;;;;;;;;10273678;28;20140;-61
2023/01/08 14:12:48;;;;;;;71.13;41.95;;;;;;;;;;10271856;28;20083;-60
2023/01/08 14:17:46;;;;;;;187.55;103.57;;;;;;;;;;10272391;28;20079;-60
2023/01/08 14:22:45;;;;;;;82.78;55.22;;;;;;;;;;10286367;28;20332;-60
2023/01/08 14:27:54;;;;;;;47.67;35.70;;;;;;;;;;10292856;28;20060;-59
2023/01/08 14:32:53;;;;;;;53.25;40.92;;;;;;;;;;10293518;28;20446;-61
2023/01/08 14:37:51;;;;;;;49.70;32.95;;;;;;;;;;10291835;28;20073;-61
2023/01/08 14:42:52;;;;;;;31.08;23.65;;;;;;;;;;10273467;28;20079;-62
2023/01/08 14:47:53;;;;;;;42.58;29.55;;;;;;;;;;10259883;28;20072;-61
2023/01/08 14:52:51;;;;;;;103.53;62.03;;;;;;;;;;10274357;28;20111;-63
2023/01/08 14:57:52;;;;;;;44.78;32.17;;;;;;;;;;10268483;28;20068;-62
2023/01/08 15:02:50;;;;;;;39.40;25.33;;;;;;;;;;10266892;28;20061;-63
2023/01/08 15:07:56;;;;;;;41.10;30.48;;;;;;;;;;10262246;28;20149;-62
2023/01/08 15:12:59;;;;;;;51.42;33.65;;;;;;;;;;10271376;28;20069;-62
2023/01/08 15:17:58;;;;;;;69.40;44.95;;;;;;;;;;10265557;28;20447;-61
2023/01/08 15:22:56;;;;;;;30.42;25.45;;;;;;;;;;10261587;28;20072;-62
2023/01/08 15:27:57;;;;;;;31.58;22.27;;;;;;;;;;10267550;28;20068;-62
2023/01/08 15:33:05;;;;;;;31.17;24.20;;;;;;;;;;10263930;28;20099;-62
2023/01/08 15:38:03;;;;;;;38.33;29.75;;;;;;;;;;10279048;28;20493;-62
2023/01/08 15:43:10;;;;;;;40.42;23.95;;;;;;;;;;10286599;28;20485;-61
2023/01/08 15:48:10;;;;;;;75.93;47.25;;;;;;;;;;10297524;28;20068;-61
2023/01/08 15:53:12;;;;;;;39.35;27.80;;;;;;;;;;10315115;28;20098;-61
2023/01/08 15:58:11;;;;;;;41.83;31.33;;;;;;;;;;10286836;28;20080;-67
2023/01/08 16:03:12;;;;;;;34.22;27.55;;;;;;;;;;10283826;28;20434;-60
2023/01/08 16:08:11;;;;;;;59.20;45.67;;;;;;;;;;10274079;28;20474;-60
2023/01/08 16:13:09;;;;;;;39.42;31.25;;;;;;;;;;10268345;28;20076;-61
2023/01/08 16:18:09;;;;;;;38.83;31.17;;;;;;;;;;10288053;28;20532;-61
2023/01/08 16:23:09;;;;;;;35.85;28.52;;;;;;;;;;10290810;28;20616;-62
2023/01/08 16:28:07;;;;;;;35.42;27.67;;;;;;;;;;10289749;28;20490;-61
2023/01/08 16:33:05;;;;;;;32.70;28.90;;;;;;;;;;10289379;28;20076;-62
2023/01/08 16:38:03;;;;;;;42.72;30.95;;;;;;;;;;10269437;28;20506;-60
2023/01/08 16:43:03;;;;;;;41.35;31.88;;;;;;;;;;10280930;28;20087;-60
2023/01/08 16:48:01;;;;;;;40.50;32.33;;;;;;;;;;10278355;28;20064;-62
2023/01/08 16:53:00;;;;;;;31.73;27.27;;;;;;;;;;10269894;28;20092;-61
2023/01/08 16:57:58;;;;;;;34.17;30.25;;;;;;;;;;10265275;28;20083;-60
2023/01/08 17:02:57;;;;;;;46.30;33.03;;;;;;;;;;10270685;28;20079;-61
2023/01/08 17:07:56;;;;;;;34.78;29.10;;;;;;;;;;10268400;28;20885;-61
2023/01/08 17:12:54;;;;;;;34.58;27.70;;;;;;;;;;10266014;28;20075;-61
2023/01/08 17:17:52;;;;;;;34.67;29.17;;;;;;;;;;10279509;28;20060;-60
2023/01/08 17:22:52;;;;;;;37.97;30.67;;;;;;;;;;10272453;28;20068;-60
2023/01/08 17:27:50;;;;;;;45.40;33.88;;;;;;;;;;10274632;28;20075;-62
2023/01/08 17:32:50;;;;;;;41.90;33.15;;;;;;;;;;10273911;28;20096;-61
2023/01/08 17:37:49;;;;;;;41.72;31.02;;;;;;;;;;10268351;28;20483;-61
2023/01/08 17:42:48;;;;;;;37.38;29.13;;;;;;;;;;10263996;28;20080;-60
2023/01/08 17:47:46;;;;;;;36.97;29.30;;;;;;;;;;10262620;28;20487;-60
2023/01/08 17:52:45;;;;;;;41.95;31.02;;;;;;;;;;10287719;28;20087;-60
2023/01/08 17:57:43;;;;;;;35.00;27.88;;;;;;;;;;10271415;28;20490;-61
2023/01/08 18:02:42;;;;;;;36.03;25.77;;;;;;;;;;10268061;28;20069;-61
2023/01/08 18:07:41;;;;;;;29.13;24.13;;;;;;;;;;10266982;28;20079;-60
2023/01/08 18:12:40;;;;;;;32.50;24.70;;;;;;;;;;10271756;28;20084;-61
2023/01/08 18:17:39;;;;;;;35.35;26.05;;;;;;;;;;10272753;28;20072;-61
2023/01/08 18:22:38;;;;;;;32.20;23.67;;;;;;;;;;10268190;28;20065;-61
2023/01/08 18:27:37;;;;;;;32.08;23.67;;;;;;;;;;10276298;28;20068;-61
2023/01/08 18:32:35;;;;;;;28.10;23.15;;;;;;;;;;10268455;28;20502;-61
2023/01/08 18:37:33;;;;;;;29.45;22.90;;;;;;;;;;10276206;28;20064;-61
2023/01/08 18:42:32;;;;;;;30.60;23.27;;;;;;;;;;10288104;28;20076;-60
2023/01/08 18:47:31;;;;;;;41.78;33.80;;;;;;;;;;10278014;28;20063;-61
2023/01/08 18:52:29;;;;;;;46.33;35.55;;;;;;;;;;10285613;28;20083;-61
2023/01/08 18:57:27;;;;;;;35.95;29.23;;;;;;;;;;10268264;28;20068;-61
2023/01/08 19:02:28;;;;;;;32.70;27.48;;;;;;;;;;10302259;28;20067;-62
2023/01/08 19:07:27;;;;;;;30.70;23.75;;;;;;;;;;10277336;28;20073;-61
2023/01/08 19:12:26;;;;;;;25.83;21.98;;;;;;;;;;10295915;28;20466;-61
2023/01/08 19:17:24;;;;;;;32.35;25.27;;;;;;;;;;10304186;28;20056;-62
2023/01/08 19:22:25;;;;;;;37.72;29.63;;;;;;;;;;10312473;28;20065;-61
2023/01/08 19:27:23;;;;;;;31.63;24.23;;;;;;;;;;10279394;28;20072;-61
2023/01/08 19:32:22;;;;;;;31.30;23.45;;;;;;;;;;10308562;28;20064;-61
2023/01/08 19:37:20;;;;;;;44.00;29.10;;;;;;;;;;10288051;28;20072;-61
2023/01/08 19:47:35;;;;;;;51.67;36.70;;;;;;;;;;10282210;28;20489;-61
2023/01/08 19:52:33;;;;;;;39.83;28.25;;;;;;;;;;10279707;28;20548;-61
2023/01/08 19:57:33;;;;;;;31.33;25.77;;;;;;;;;;10280137;28;20080;-61
2023/01/08 20:02:32;;;;;;;36.40;27.33;;;;;;;;;;10286871;28;20544;-61
2023/01/08 20:07:30;;;;;;;50.65;32.78;;;;;;;;;;10279543;28;20080;-61
2023/01/08 20:12:29;;;;;;;42.75;29.13;;;;;;;;;;10295018;28;20091;-61
2023/01/08 20:17:28;;;;;;;85.05;47.47;;;;;;;;;;10278860;28;20061;-61
2023/01/08 20:22:28;;;;;;;60.25;37.90;;;;;;;;;;10280810;28;20481;-61
2023/01/08 20:27:26;;;;;;;55.53;36.05;;;;;;;;;;10288647;28;20051;-61
2023/01/08 20:32:24;;;;;;;52.35;36.83;;;;;;;;;;10287143;28;20063;-61
2023/01/08 20:37:24;;;;;;;48.03;34.45;;;;;;;;;;10279092;28;20068;-61
2023/01/08 20:42:22;;;;;;;57.20;41.53;;;;;;;;;;10299244;28;20087;-61
2023/01/08 20:47:30;;;;;;;54.67;41.13;;;;;;;;;;10267938;28;20052;-61
2023/01/08 20:52:30;;;;;;;57.38;41.88;;;;;;;;;;10282218;28;20073;-61
2023/01/08 20:57:28;;;;;;;37.97;31.25;;;;;;;;;;10296873;28;20072;-60
2023/01/08 21:02:26;;;;;;;35.25;27.02;;;;;;;;;;10284554;28;20122;-61
2023/01/08 21:07:28;;;;;;;36.10;25.08;;;;;;;;;;10301511;28;20060;-61
2023/01/08 21:12:28;;;;;;;41.67;27.60;;;;;;;;;;10303352;28;20075;-61
2023/01/08 21:17:26;;;;;;;35.10;27.80;;;;;;;;;;10310830;28;20071;-61
2023/01/08 21:22:24;;;;;;;64.80;44.97;;;;;;;;;;10312588;28;20083;-61
2023/01/08 21:27:22;;;;;;;43.65;32.47;;;;;;;;;;10298866;28;20069;-61
2023/01/08 21:32:22;;;;;;;41.13;32.17;;;;;;;;;;10274256;28;20527;-62
2023/01/08 21:37:20;;;;;;;41.88;34.42;;;;;;;;;;10275419;28;20429;-61
2023/01/08 21:47:35;;;;;;;44.25;31.58;;;;;;;;;;10316859;28;20063;-61
2023/01/08 21:57:49;;;;;;;63.67;35.65;;;;;;;;;;10276096;28;20075;-61
2023/01/08 22:02:49;;;;;;;106.50;34.75;;;;;;;;;;10315414;28;20086;-61
2023/01/08 22:07:47;;;;;;;79.30;29.80;;;;;;;;;;10315788;28;20037;-61
2023/01/08 22:12:45;;;;;;;94.40;29.10;;;;;;;;;;10272749;28;20509;-61
2023/01/08 22:17:44;;;;;;;70.22;27.92;;;;;;;;;;10274996;28;20040;-61
2023/01/08 22:22:45;;;;;;;76.70;24.67;;;;;;;;;;10274555;28;20072;-61
2023/01/08 22:27:44;;;;;;;35.33;21.73;;;;;;;;;;10269594;28;20048;-61
2023/01/08 22:32:42;;;;;;;34.17;24.98;;;;;;;;;;10304592;28;20076;-61
2023/01/08 22:37:42;;;;;;;26.98;19.77;;;;;;;;;;10274514;28;20099;-61
2023/01/08 22:42:42;;;;;;;26.40;19.85;;;;;;;;;;10271088;28;20084;-62
2023/01/08 22:47:40;;;;;;;111.40;81.60;;;;;;;;;;10284288;28;20064;-61
2023/01/08 22:52:38;;;;;;;160.55;90.43;;;;;;;;;;10300346;28;20079;-61
2023/01/08 22:57:36;;;;;;;258.52;53.33;;;;;;;;;;10315447;28;20048;-61
2023/01/08 23:02:37;;;;;;;86.10;51.67;;;;;;;;;;10314295;28;20075;-61
2023/01/08 23:07:35;;;;;;;287.08;106.53;;;;;;;;;;10314803;28;20045;-61
2023/01/08 23:12:33;;;;;;;110.50;38.10;;;;;;;;;;10314707;28;20417;-61
2023/01/08 23:17:34;;;;;;;80.85;37.53;;;;;;;;;;10314645;28;20041;-61
2023/01/08 23:22:49;;;;;;;237.02;33.25;;;;;;;;;;10314243;28;20072;-61
2023/01/08 23:27:48;;;;;;;139.52;32.13;;;;;;;;;;10296940;28;20072;-61
2023/01/08 23:32:46;;;;;;;200.18;45.40;;;;;;;;;;10304768;28;20064;-62
2023/01/08 23:37:44;;;;;;;243.32;36.00;;;;;;;;;;10300764;28;20075;-61
2023/01/08 23:42:44;;;;;;;103.97;25.83;;;;;;;;;;10314362;28;20095;-61
2023/01/08 23:47:42;;;;;;;361.58;37.72;;;;;;;;;;10314043;28;20091;-61
2023/01/08 23:52:40;;;;;;;202.60;26.13;;;;;;;;;;10312763;28;20442;-61
2023/01/08 23:57:38;;;;;;;305.70;33.35;;;;;;;;;;10318783;28;20048;-61
